Time;durP1;ratioP1;P1;durP2;ratioP2;P2;SDS_P1;SDS_P2;PMS_P1;PMS_P2;Temp;Humidity;BMP_temperature;BMP_pressure;BME280_temperature;BME280_humidity;BME280_pressure;Samples;Min_cycle;Max_cycle;Signal;HPM_P1;HPM_P2
2023/07/16 14:23:52;;;;;;;4.03;2.50;;;;;;;27.31;36.93;100524.13;10440524;27;97243;-84
2023/07/16 14:28:55;;;;;;;3.40;2.17;;;;;;;27.62;37.12;100530.72;10400382;27;97695;-84
2023/07/16 14:33:58;;;;;;;4.30;2.73;;;;;;;27.59;36.03;100531.03;10396881;27;98244;-82
2023/07/16 14:39:03;;;;;;;6.73;2.90;;;;;;;27.75;35.27;100520.31;10395026;28;98426;-78
2023/07/16 14:44:06;;;;;;;4.30;2.58;;;;;;;28.09;35.83;100522.94;10395689;28;97486;-78
2023/07/16 14:49:10;;;;;;;4.50;2.53;;;;;;;27.77;34.04;100512.06;10403166;28;98715;-76
2023/07/16 14:54:14;;;;;;;3.85;2.42;;;;;;;28.12;34.64;100509.06;10399329;28;98843;-76
2023/07/16 14:59:18;;;;;;;4.15;2.42;;;;;;;28.09;34.65;100491.34;10392728;28;97806;-92
2023/07/16 15:04:21;;;;;;;3.55;2.30;;;;;;;28.22;34.15;100490.00;10416992;27;97166;-92
2023/07/16 15:09:27;;;;;;;4.63;2.45;;;;;;;28.18;33.86;100483.22;10419073;28;96676;-91
2023/07/16 15:14:30;;;;;;;3.95;2.55;;;;;;;28.16;33.21;100487.94;10415382;28;96793;-91
2023/07/16 15:19:35;;;;;;;3.60;2.53;;;;;;;28.23;31.84;100480.84;10413461;28;96876;-92
2023/07/16 15:24:40;;;;;;;4.32;2.72;;;;;;;28.19;32.34;100477.63;10415207;28;97607;-90
2023/07/16 15:29:44;;;;;;;3.55;2.35;;;;;;;28.19;32.55;100479.50;10391871;28;97571;-87
2023/07/16 15:34:47;;;;;;;3.60;2.55;;;;;;;28.24;32.36;100475.25;10348682;28;96735;-92
2023/07/16 15:39:52;;;;;;;3.58;2.50;;;;;;;28.42;32.76;100475.13;10343610;28;97556;-87
2023/07/16 15:44:55;;;;;;;3.42;2.50;;;;;;;28.35;32.64;100474.97;10353417;28;96762;-91
2023/07/16 15:49:58;;;;;;;4.68;2.58;;;;;;;28.40;32.55;100464.47;10384537;28;97237;-91
2023/07/16 15:55:03;;;;;;;4.22;2.28;;;;;;;28.20;33.04;100452.28;10386012;28;96934;-91
2023/07/16 16:00:13;;;;;;;5.00;2.90;;;;;;;27.57;33.27;100448.38;10386209;28;96628;-90
2023/07/16 16:05:18;;;;;;;3.78;2.70;;;;;;;28.06;33.62;100450.22;10345971;28;96852;-87
2023/07/16 16:10:22;;;;;;;5.10;2.88;;;;;;;27.74;33.05;100459.13;10341312;28;96571;-91
2023/07/16 16:15:26;;;;;;;4.70;2.53;;;;;;;27.64;34.54;100452.13;10341225;28;96698;-88
2023/07/16 16:20:29;;;;;;;3.97;2.55;;;;;;;27.45;36.18;100441.59;10342390;28;97725;-90
2023/07/16 16:25:34;;;;;;;5.53;3.33;;;;;;;27.08;36.73;100441.94;10344264;28;96658;-93
2023/07/16 16:30:42;;;;;;;5.10;2.78;;;;;;;26.95;38.26;100442.34;10344322;28;96777;-93
2023/07/16 16:35:45;;;;;;;5.32;3.33;;;;;;;26.54;39.42;100447.66;10351796;28;97024;-92
2023/07/16 16:40:50;;;;;;;5.20;2.97;;;;;;;26.44;40.09;100445.03;10386865;28;97338;-93
2023/07/16 16:45:53;;;;;;;4.90;2.78;;;;;;;26.38;39.60;100442.13;10385076;28;97148;-92
2023/07/16 16:50:56;;;;;;;5.80;2.90;;;;;;;26.22;40.33;100445.50;10383802;28;96907;-92
2023/07/16 16:56:05;;;;;;;5.53;2.47;;;;;;;26.29;41.07;100433.09;10383599;28;97147;-90
2023/07/16 17:01:08;;;;;;;4.45;2.58;;;;;;;26.26;41.33;100440.63;10384186;28;96688;-90
2023/07/16 17:06:11;;;;;;;3.40;2.10;;;;;;;26.25;41.32;100434.38;10384019;28;96703;-91
2023/07/16 17:11:16;;;;;;;4.17;2.43;;;;;;;26.30;41.42;100439.34;10364844;28;97126;-92
2023/07/16 17:16:20;;;;;;;5.47;2.20;;;;;;;26.18;42.08;100436.00;10343270;28;96693;-92
2023/07/16 17:21:26;;;;;;;4.70;2.60;;;;;;;25.85;42.21;100436.69;10341778;28;98041;-90
2023/07/16 17:26:33;;;;;;;4.80;2.30;;;;;;;26.07;42.38;100438.97;10348337;28;96592;-92
2023/07/16 17:31:38;;;;;;;4.32;2.40;;;;;;;26.10;42.72;100429.69;10383543;28;96765;-92
2023/07/16 17:36:43;;;;;;;4.80;2.15;;;;;;;26.21;43.03;100432.16;10383202;28;96578;-92
2023/07/16 17:41:50;;;;;;;3.63;2.25;;;;;;;25.97;42.29;100446.25;10383427;28;97053;-89
2023/07/16 17:46:54;;;;;;;4.20;2.28;;;;;;;26.03;42.95;100439.41;10382536;28;96620;-92
2023/07/16 17:52:00;;;;;;;3.90;2.25;;;;;;;25.86;43.51;100455.47;10381891;28;96732;-89
2023/07/16 17:57:08;;;;;;;4.38;2.10;;;;;;;25.87;43.60;100459.84;10382022;28;97087;-89
2023/07/16 18:02:12;;;;;;;3.40;1.70;;;;;;;25.48;44.33;100457.50;10381971;28;98426;-90
2023/07/16 18:07:21;;;;;;;3.22;2.17;;;;;;;25.33;44.83;100459.84;10381391;28;96727;-90
2023/07/16 18:12:28;;;;;;;4.22;2.10;;;;;;;25.29;45.17;100468.38;10381810;28;96678;-91
2023/07/16 18:17:33;;;;;;;5.25;2.45;;;;;;;25.24;45.19;100473.38;10373420;28;96626;-92
2023/07/16 18:22:38;;;;;;;3.50;2.20;;;;;;;25.17;45.66;100475.81;10337924;28;96747;-92
2023/07/16 18:27:45;;;;;;;5.85;2.65;;;;;;;24.84;46.18;100482.53;10339235;28;96695;-90
2023/07/16 18:32:49;;;;;;;5.25;2.45;;;;;;;24.93;46.15;100472.72;10339807;28;97465;-89
2023/07/16 18:37:54;;;;;;;4.53;2.53;;;;;;;24.74;46.73;100479.00;10340316;28;97528;-90
2023/07/16 18:43:03;;;;;;;4.53;2.35;;;;;;;24.60;47.02;100476.78;10339306;28;97126;-89
2023/07/16 18:48:09;;;;;;;5.95;2.80;;;;;;;24.45;47.33;100482.75;10339935;28;96669;-89
2023/07/16 18:53:13;;;;;;;6.78;2.95;;;;;;;24.43;47.74;100487.41;10359115;28;97854;-89
2023/07/16 18:58:21;;;;;;;3.90;2.80;;;;;;;24.41;47.72;100481.34;10379284;28;96725;-90
2023/07/16 19:03:25;;;;;;;5.30;2.35;;;;;;;24.32;48.04;100484.88;10347554;28;97495;-90
2023/07/16 19:08:30;;;;;;;5.57;2.83;;;;;;;24.11;48.45;100479.63;10348942;28;97520;-91
2023/07/16 19:13:37;;;;;;;4.20;2.38;;;;;;;24.07;48.93;100486.25;10387627;28;97695;-91
2023/07/16 19:18:42;;;;;;;5.53;2.35;;;;;;;23.99;48.84;100477.19;10386094;28;96640;-91
2023/07/16 19:23:47;;;;;;;6.22;2.63;;;;;;;23.88;48.95;100488.06;10385914;28;96801;-92
2023/07/16 19:28:54;;;;;;;4.00;2.40;;;;;;;23.75;49.01;100480.28;10385306;28;97166;-92
2023/07/16 19:33:57;;;;;;;3.65;2.10;;;;;;;23.60;49.58;100489.72;10385771;28;96766;-90
2023/07/16 19:39:01;;;;;;;4.93;2.40;;;;;;;23.50;50.00;100492.34;10387153;28;96781;-91
2023/07/16 19:44:06;;;;;;;3.33;2.10;;;;;;;23.40;49.95;100494.16;10367268;28;97481;-90
2023/07/16 19:49:09;;;;;;;4.88;2.03;;;;;;;23.26;50.26;100493.66;10345066;28;96749;-91
2023/07/16 19:54:13;;;;;;;4.47;2.60;;;;;;;23.06;50.21;100502.63;10343952;28;97613;-90
2023/07/16 19:59:17;;;;;;;4.90;2.27;;;;;;;23.09;50.34;100499.66;10351173;28;97057;-90
2023/07/16 20:04:21;;;;;;;4.47;2.38;;;;;;;23.00;50.62;100501.31;10384909;28;96715;-92
2023/07/16 20:09:25;;;;;;;4.07;2.17;;;;;;;23.00;50.73;100505.84;10384564;28;96544;-91
2023/07/16 20:14:31;;;;;;;3.72;2.22;;;;;;;22.91;51.22;100510.16;10384465;28;96814;-91
2023/07/16 20:19:34;;;;;;;3.90;2.10;;;;;;;22.84;51.61;100505.44;10384078;28;97549;-90
2023/07/16 20:24:37;;;;;;;3.10;2.03;;;;;;;22.67;52.26;100503.34;10385775;28;97186;-91
2023/07/16 20:29:43;;;;;;;4.20;2.10;;;;;;;22.54;52.63;100517.78;10385014;28;96717;-91
2023/07/16 20:34:46;;;;;;;3.67;2.03;;;;;;;22.46;52.94;100517.59;10384768;28;96997;-91
2023/07/16 20:39:49;;;;;;;4.88;2.55;;;;;;;22.37;53.17;100521.06;10390007;28;96712;-91
2023/07/16 20:45:18;;;;;;;5.82;2.78;;;;;;;22.16;54.18;100525.53;10391021;28;96596;-91
2023/07/16 20:50:24;;;;;;;4.00;2.10;;;;;;;22.03;53.93;100526.66;10388181;28;96609;-91
2023/07/16 20:55:28;;;;;;;4.25;2.22;;;;;;;21.96;54.50;100528.97;10385585;28;96830;-91
2023/07/16 21:00:33;;;;;;;3.60;2.30;;;;;;;21.74;55.04;100542.44;10387612;28;96865;-91
2023/07/16 21:05:37;;;;;;;4.47;2.28;;;;;;;21.82;54.55;100549.81;10395833;28;96701;-91
2023/07/16 21:10:41;;;;;;;;;;;;;;;21.67;55.81;100549.25;10387191;28;97180;-91
2023/07/16 21:15:46;;;;;;;3.72;2.00;;;;;;;21.52;55.60;100549.63;10391017;28;96576;-90
2023/07/16 21:20:49;;;;;;;3.15;1.90;;;;;;;21.38;56.05;100542.69;10396706;28;97457;-91
2023/07/16 21:25:52;;;;;;;3.17;2.15;;;;;;;21.45;55.87;100547.44;10393582;28;96722;-91
2023/07/16 21:30:57;;;;;;;4.82;2.15;;;;;;;21.24;56.57;100553.66;10392468;28;96631;-91
2023/07/16 21:36:00;;;;;;;5.22;2.20;;;;;;;21.18;56.88;100552.28;10391456;28;97082;-91
2023/07/16 21:41:03;;;;;;;2.83;2.03;;;;;;;21.17;56.94;100552.41;10393263;28;96523;-91
2023/07/16 21:46:08;;;;;;;3.67;2.30;;;;;;;21.02;57.42;100556.25;10392027;28;96642;-91
2023/07/16 21:51:11;;;;;;;5.28;2.22;;;;;;;20.90;57.53;100557.19;10386266;28;97344;-92
2023/07/16 21:56:15;;;;;;;3.65;2.10;;;;;;;20.76;58.27;100554.72;10386428;28;96537;-91
2023/07/16 22:01:20;;;;;;;2.67;1.95;;;;;;;20.45;59.00;100558.03;10360765;28;97666;-91
2023/07/16 22:06:23;;;;;;;6.28;2.38;;;;;;;20.48;58.96;100555.97;10342792;28;97064;-90
2023/07/16 22:11:27;;;;;;;2.97;1.95;;;;;;;20.57;58.90;100552.59;10343840;28;97395;-89
2023/07/16 22:16:31;;;;;;;3.88;1.88;;;;;;;20.71;58.58;100556.91;10343785;28;96675;-89
2023/07/16 22:21:35;;;;;;;3.75;2.20;;;;;;;20.63;58.88;100549.47;10345003;28;97344;-90
2023/07/16 22:26:38;;;;;;;4.28;2.35;;;;;;;20.71;58.79;100548.88;10342860;28;97376;-90
2023/07/16 22:31:43;;;;;;;3.13;2.15;;;;;;;20.78;58.51;100550.13;10341619;28;96796;-89
2023/07/16 22:36:46;;;;;;;5.22;2.53;;;;;;;20.58;59.35;100551.66;10383159;28;97797;-90
2023/07/16 22:41:49;;;;;;;4.43;2.45;;;;;;;20.69;59.21;100550.84;10384520;28;97008;-90
2023/07/16 22:46:54;;;;;;;3.05;2.17;;;;;;;20.48;59.76;100561.31;10389632;28;96875;-89
2023/07/16 22:51:58;;;;;;;3.97;2.40;;;;;;;20.22;60.67;100557.91;10385938;28;96861;-89
2023/07/16 22:57:01;;;;;;;4.23;2.50;;;;;;;19.96;61.33;100558.97;10363491;28;97191;-90
2023/07/16 23:02:06;;;;;;;4.10;2.40;;;;;;;20.07;60.93;100552.84;10347088;28;96712;-90
2023/07/16 23:07:10;;;;;;;3.97;2.33;;;;;;;20.13;60.85;100555.91;10347698;28;96733;-89
2023/07/16 23:12:15;;;;;;;5.72;2.83;;;;;;;20.01;61.25;100543.44;10345053;28;97808;-89
2023/07/16 23:17:23;;;;;;;4.68;2.42;;;;;;;19.88;61.48;100547.13;10345858;28;97564;-89
2023/07/16 23:22:28;;;;;;;4.40;2.40;;;;;;;19.83;61.86;100536.81;10345959;28;96673;-90
2023/07/16 23:27:33;;;;;;;4.40;2.50;;;;;;;19.72;62.25;100536.72;10346764;28;96692;-90
2023/07/16 23:32:38;;;;;;;;;;;;;;;19.64;62.71;100536.44;10347082;28;96982;-90
2023/07/16 23:37:42;;;;;;;;;;;;;;;19.59;62.73;100535.91;10346273;28;96632;-90
2023/07/16 23:42:45;;;;;;;3.30;2.20;;;;;;;19.43;62.48;100534.44;10370045;28;96586;-89
2023/07/16 23:47:50;;;;;;;3.90;2.47;;;;;;;19.78;62.02;100536.28;10388759;28;96706;-90
2023/07/16 23:52:53;;;;;;;5.63;2.88;;;;;;;19.26;63.47;100531.16;10384089;28;97686;-90
2023/07/16 23:57:57;;;;;;;6.07;2.55;;;;;;;19.56;62.76;100535.28;10373917;28;96710;-90
